Akaroa II — 2DWJ4 — position and weather

sailwx.info

Track history (hours):
 
Tides and Currents Weather Stations Pressure Air Temp Water Temp Dewpoint Dewpoint Depression Visibility Wind Speed Wind Dir Waves Ship Positions

Akaroa II

Last reported at 2017-Oct-09 11:17 UTC. Time now 2017-Nov-24 12:57 UTC.
Position N 55°52' W 004°56'.
Warning: this ship's position is 46 days out of date.

Length 20 m.

Type: Sailing vessel. MMSI: 235082545.

Date/timePositionNaut miles runAvg speedWind from/ knotsBaromVisibWave heightAir tempDewpointWater temp
2017-Oct-09 11:17N 55°52' W 004°56'2 8.5
2017-Oct-09 11:00N 55°49' W 004°57'4 8.2
2017-Oct-09 10:29N 55°45' W 004°58'4 8.0
2017-Oct-09 09:57N 55°41' W 005°01'4 7.9
2017-Oct-09 09:26N 55°37' W 005°02'32 1.4
2017-Oct-08 09:37N 55°19' W 005°49'10 9.5
2017-Oct-08 08:34N 55°29' W 005°46'2 8.3
2017-Oct-08 08:17N 55°31' W 005°45'3 8.0
2017-Oct-08 07:55N 55°34' W 005°45'4 7.9
2017-Oct-08 07:25N 55°38' W 005°44'46 2.1
2017-Oct-07 08:59N 56°24' W 005°35'3 6.4
2017-Oct-07 08:30N 56°26' W 005°31'3 5.8
2017-Oct-07 08:00N 56°28' W 005°27'1 1.9
2017-Oct-07 07:30N 56°27' W 005°26'  
Track history (hours):
 
Tides and Currents Weather Stations Pressure Air Temp Water Temp Dewpoint Dewpoint Depression Visibility Wind Speed Wind Dir Waves Ship Positions

Akaroa II

Last reported at 2017-Oct-09 11:17 UTC. Time now 2017-Nov-24 12:57 UTC.
Position N 55°52' W 004°56'.
Warning: this ship's position is 46 days out of date.

Length 20 m.

Type: Sailing vessel. MMSI: 235082545.

Date/timePositionNaut miles runAvg speedWind from/ knotsBaromVisibWave heightAir tempDewpointWater temp
2017-Oct-09 11:17N 55°52' W 004°56'2 8.5
2017-Oct-09 11:00N 55°49' W 004°57'4 8.2
2017-Oct-09 10:29N 55°45' W 004°58'4 8.0
2017-Oct-09 09:57N 55°41' W 005°01'4 7.9
2017-Oct-09 09:26N 55°37' W 005°02'32 1.4
2017-Oct-08 09:37N 55°19' W 005°49'10 9.5
2017-Oct-08 08:34N 55°29' W 005°46'2 8.3
2017-Oct-08 08:17N 55°31' W 005°45'3 8.0
2017-Oct-08 07:55N 55°34' W 005°45'4 7.9
2017-Oct-08 07:25N 55°38' W 005°44'46 2.1
2017-Oct-07 08:59N 56°24' W 005°35'3 6.4
2017-Oct-07 08:30N 56°26' W 005°31'3 5.8
2017-Oct-07 08:00N 56°28' W 005°27'1 1.9
2017-Oct-07 07:30N 56°27' W 005°26'  

Dump ship's entire track history